sensor_id;sensor_type;location;lat;lon;timestamp;P1;durP1;ratioP1;P2;durP2;ratioP2
11685;SDS011;5899;51.282;6.094;2023-03-24T00:01:29;2.63;;;2.10;;
11685;SDS011;5899;51.282;6.094;2023-03-24T00:03:55;2.90;;;2.00;;
11685;SDS011;5899;51.282;6.094;2023-03-24T00:06:25;1.73;;;1.60;;
11685;SDS011;5899;51.282;6.094;2023-03-24T00:09:00;2.30;;;2.10;;
11685;SDS011;5899;51.282;6.094;2023-03-24T00:11:31;3.10;;;1.90;;
11685;SDS011;5899;51.282;6.094;2023-03-24T00:13:59;2.08;;;1.88;;
11685;SDS011;5899;51.282;6.094;2023-03-24T00:16:28;2.03;;;1.90;;
11685;SDS011;5899;51.282;6.094;2023-03-24T00:18:59;2.63;;;2.07;;
11685;SDS011;5899;51.282;6.094;2023-03-24T00:21:25;2.20;;;2.00;;
11685;SDS011;5899;51.282;6.094;2023-03-24T00:23:56;3.00;;;2.10;;
11685;SDS011;5899;51.282;6.094;2023-03-24T00:26:26;2.65;;;1.90;;
11685;SDS011;5899;51.282;6.094;2023-03-24T00:28:54;2.00;;;1.70;;
11685;SDS011;5899;51.282;6.094;2023-03-24T00:31:21;2.70;;;2.10;;
11685;SDS011;5899;51.282;6.094;2023-03-24T00:33:51;2.40;;;1.70;;
11685;SDS011;5899;51.282;6.094;2023-03-24T00:36:20;2.33;;;2.13;;
11685;SDS011;5899;51.282;6.094;2023-03-24T00:38:47;2.13;;;1.92;;
11685;SDS011;5899;51.282;6.094;2023-03-24T00:41:14;2.17;;;1.98;;
11685;SDS011;5899;51.282;6.094;2023-03-24T00:43:44;1.90;;;1.67;;
11685;SDS011;5899;51.282;6.094;2023-03-24T00:46:11;3.15;;;1.85;;
11685;SDS011;5899;51.282;6.094;2023-03-24T00:49:00;2.40;;;2.05;;
11685;SDS011;5899;51.282;6.094;2023-03-24T00:51:36;2.33;;;1.73;;
11685;SDS011;5899;51.282;6.094;2023-03-24T00:54:03;2.20;;;2.00;;
11685;SDS011;5899;51.282;6.094;2023-03-24T00:56:33;2.35;;;1.88;;
11685;SDS011;5899;51.282;6.094;2023-03-24T00:59:04;2.40;;;1.77;;
11685;SDS011;5899;51.282;6.094;2023-03-24T01:01:33;2.63;;;2.00;;
11685;SDS011;5899;51.282;6.094;2023-03-24T01:04:05;1.90;;;1.75;;
11685;SDS011;5899;51.282;6.094;2023-03-24T01:06:33;2.80;;;1.83;;
11685;SDS011;5899;51.282;6.094;2023-03-24T01:09:00;2.13;;;1.90;;
11685;SDS011;5899;51.282;6.094;2023-03-24T01:11:27;3.92;;;2.00;;
11685;SDS011;5899;51.282;6.094;2023-03-24T01:13:55;2.95;;;2.00;;
11685;SDS011;5899;51.282;6.094;2023-03-24T01:16:21;1.92;;;1.80;;
11685;SDS011;5899;51.282;6.094;2023-03-24T01:18:49;2.80;;;1.90;;
11685;SDS011;5899;51.282;6.094;2023-03-24T01:21:20;2.30;;;2.10;;
11685;SDS011;5899;51.282;6.094;2023-03-24T01:23:49;4.00;;;2.10;;
11685;SDS011;5899;51.282;6.094;2023-03-24T01:26:16;3.67;;;2.33;;
11685;SDS011;5899;51.282;6.094;2023-03-24T01:28:44;2.20;;;1.90;;
11685;SDS011;5899;51.282;6.094;2023-03-24T01:31:10;2.30;;;1.90;;
11685;SDS011;5899;51.282;6.094;2023-03-24T01:33:37;2.10;;;1.90;;
11685;SDS011;5899;51.282;6.094;2023-03-24T01:36:04;3.08;;;2.10;;
11685;SDS011;5899;51.282;6.094;2023-03-24T01:38:32;2.15;;;1.95;;
11685;SDS011;5899;51.282;6.094;2023-03-24T01:40:59;2.85;;;1.88;;
11685;SDS011;5899;51.282;6.094;2023-03-24T01:43:27;2.58;;;2.38;;
11685;SDS011;5899;51.282;6.094;2023-03-24T01:45:57;2.80;;;2.05;;
11685;SDS011;5899;51.282;6.094;2023-03-24T01:48:27;3.17;;;1.90;;
11685;SDS011;5899;51.282;6.094;2023-03-24T01:50:56;2.88;;;2.17;;
11685;SDS011;5899;51.282;6.094;2023-03-24T01:53:23;2.10;;;1.90;;
11685;SDS011;5899;51.282;6.094;2023-03-24T01:55:53;3.33;;;2.30;;
11685;SDS011;5899;51.282;6.094;2023-03-24T01:58:20;4.07;;;2.30;;
11685;SDS011;5899;51.282;6.094;2023-03-24T02:00:48;2.40;;;1.98;;
11685;SDS011;5899;51.282;6.094;2023-03-24T02:03:17;2.72;;;2.20;;
11685;SDS011;5899;51.282;6.094;2023-03-24T02:05:49;4.20;;;2.45;;
11685;SDS011;5899;51.282;6.094;2023-03-24T02:08:18;2.67;;;2.20;;
11685;SDS011;5899;51.282;6.094;2023-03-24T02:10:48;2.50;;;2.30;;
11685;SDS011;5899;51.282;6.094;2023-03-24T02:13:18;4.70;;;2.40;;
11685;SDS011;5899;51.282;6.094;2023-03-24T02:15:48;2.80;;;2.50;;
11685;SDS011;5899;51.282;6.094;2023-03-24T02:18:20;3.00;;;2.28;;
11685;SDS011;5899;51.282;6.094;2023-03-24T02:20:59;2.92;;;2.30;;
11685;SDS011;5899;51.282;6.094;2023-03-24T02:32:14;2.42;;;2.10;;
11685;SDS011;5899;51.282;6.094;2023-03-24T02:34:51;2.60;;;2.30;;
11685;SDS011;5899;51.282;6.094;2023-03-24T02:37:27;2.50;;;2.30;;
11685;SDS011;5899;51.282;6.094;2023-03-24T02:40:12;2.72;;;2.17;;
11685;SDS011;5899;51.282;6.094;2023-03-24T02:42:44;3.55;;;2.45;;
11685;SDS011;5899;51.282;6.094;2023-03-24T02:45:17;3.17;;;2.22;;
11685;SDS011;5899;51.282;6.094;2023-03-24T02:47:46;3.40;;;2.15;;
11685;SDS011;5899;51.282;6.094;2023-03-24T02:50:16;2.53;;;2.22;;
11685;SDS011;5899;51.282;6.094;2023-03-24T02:52:44;3.03;;;2.40;;
11685;SDS011;5899;51.282;6.094;2023-03-24T02:55:17;2.47;;;2.20;;
11685;SDS011;5899;51.282;6.094;2023-03-24T02:57:50;4.18;;;2.47;;
11685;SDS011;5899;51.282;6.094;2023-03-24T03:00:21;2.70;;;2.15;;
11685;SDS011;5899;51.282;6.094;2023-03-24T03:02:56;2.50;;;2.20;;
11685;SDS011;5899;51.282;6.094;2023-03-24T03:05:26;2.90;;;2.10;;
11685;SDS011;5899;51.282;6.094;2023-03-24T03:07:56;2.40;;;2.10;;
11685;SDS011;5899;51.282;6.094;2023-03-24T03:10:26;2.35;;;2.15;;
11685;SDS011;5899;51.282;6.094;2023-03-24T03:13:00;2.20;;;2.00;;
11685;SDS011;5899;51.282;6.094;2023-03-24T03:15:28;3.40;;;2.13;;
11685;SDS011;5899;51.282;6.094;2023-03-24T03:17:57;2.80;;;2.50;;
11685;SDS011;5899;51.282;6.094;2023-03-24T03:20:27;2.80;;;2.50;;
11685;SDS011;5899;51.282;6.094;2023-03-24T03:22:55;2.90;;;2.42;;
11685;SDS011;5899;51.282;6.094;2023-03-24T03:25:28;3.17;;;2.40;;
11685;SDS011;5899;51.282;6.094;2023-03-24T03:27:56;2.63;;;2.30;;
11685;SDS011;5899;51.282;6.094;2023-03-24T03:30:25;2.78;;;2.30;;
11685;SDS011;5899;51.282;6.094;2023-03-24T03:32:54;2.92;;;2.30;;
11685;SDS011;5899;51.282;6.094;2023-03-24T03:35:28;2.85;;;2.40;;
11685;SDS011;5899;51.282;6.094;2023-03-24T03:37:57;3.38;;;2.20;;
11685;SDS011;5899;51.282;6.094;2023-03-24T03:40:31;3.10;;;2.78;;
11685;SDS011;5899;51.282;6.094;2023-03-24T03:43:02;2.83;;;2.50;;
11685;SDS011;5899;51.282;6.094;2023-03-24T03:45:31;2.55;;;2.35;;
11685;SDS011;5899;51.282;6.094;2023-03-24T03:47:58;3.55;;;2.30;;
11685;SDS011;5899;51.282;6.094;2023-03-24T03:50:25;2.97;;;2.00;;
11685;SDS011;5899;51.282;6.094;2023-03-24T03:52:52;2.80;;;2.05;;
11685;SDS011;5899;51.282;6.094;2023-03-24T03:55:21;3.80;;;2.30;;
11685;SDS011;5899;51.282;6.094;2023-03-24T03:57:49;2.35;;;2.15;;
11685;SDS011;5899;51.282;6.094;2023-03-24T04:00:17;2.35;;;2.15;;
11685;SDS011;5899;51.282;6.094;2023-03-24T04:02:48;2.83;;;2.10;;
11685;SDS011;5899;51.282;6.094;2023-03-24T04:05:23;2.05;;;1.85;;
11685;SDS011;5899;51.282;6.094;2023-03-24T04:08:09;2.33;;;2.08;;
11685;SDS011;5899;51.282;6.094;2023-03-24T04:10:46;2.53;;;1.90;;
11685;SDS011;5899;51.282;6.094;2023-03-24T04:13:16;2.25;;;2.00;;
11685;SDS011;5899;51.282;6.094;2023-03-24T04:15:52;2.33;;;1.80;;
11685;SDS011;5899;51.282;6.094;2023-03-24T04:18:24;3.10;;;2.10;;
11685;SDS011;5899;51.282;6.094;2023-03-24T04:20:55;3.20;;;2.03;;
11685;SDS011;5899;51.282;6.094;2023-03-24T04:23:24;1.92;;;1.83;;
11685;SDS011;5899;51.282;6.094;2023-03-24T04:25:58;2.13;;;1.92;;
11685;SDS011;5899;51.282;6.094;2023-03-24T04:28:29;2.27;;;1.57;;
11685;SDS011;5899;51.282;6.094;2023-03-24T04:30:59;2.38;;;2.05;;
11685;SDS011;5899;51.282;6.094;2023-03-24T04:33:29;2.00;;;1.80;;
11685;SDS011;5899;51.282;6.094;2023-03-24T04:35:59;2.92;;;1.77;;
11685;SDS011;5899;51.282;6.094;2023-03-24T04:38:32;2.85;;;1.55;;
11685;SDS011;5899;51.282;6.094;2023-03-24T04:41:03;2.10;;;1.58;;
11685;SDS011;5899;51.282;6.094;2023-03-24T04:43:35;1.60;;;1.40;;
11685;SDS011;5899;51.282;6.094;2023-03-24T04:46:04;2.92;;;1.40;;
11685;SDS011;5899;51.282;6.094;2023-03-24T04:48:33;2.45;;;1.60;;
11685;SDS011;5899;51.282;6.094;2023-03-24T04:51:02;2.95;;;1.60;;
11685;SDS011;5899;51.282;6.094;2023-03-24T04:53:30;1.90;;;1.40;;
11685;SDS011;5899;51.282;6.094;2023-03-24T04:56:06;2.20;;;1.80;;
11685;SDS011;5899;51.282;6.094;2023-03-24T04:58:43;2.13;;;1.42;;
11685;SDS011;5899;51.282;6.094;2023-03-24T05:01:09;2.22;;;1.45;;
11685;SDS011;5899;51.282;6.094;2023-03-24T05:03:36;2.75;;;2.00;;
11685;SDS011;5899;51.282;6.094;2023-03-24T05:06:03;3.90;;;2.10;;
11685;SDS011;5899;51.282;6.094;2023-03-24T05:08:33;3.20;;;1.90;;
11685;SDS011;5899;51.282;6.094;2023-03-24T05:11:00;2.42;;;1.65;;
11685;SDS011;5899;51.282;6.094;2023-03-24T05:13:26;2.85;;;1.30;;
11685;SDS011;5899;51.282;6.094;2023-03-24T05:15:54;4.10;;;1.53;;
11685;SDS011;5899;51.282;6.094;2023-03-24T05:18:22;3.50;;;1.40;;
11685;SDS011;5899;51.282;6.094;2023-03-24T05:20:49;3.20;;;1.55;;
11685;SDS011;5899;51.282;6.094;2023-03-24T05:23:15;3.60;;;1.40;;
11685;SDS011;5899;51.282;6.094;2023-03-24T05:25:42;4.80;;;1.70;;
11685;SDS011;5899;51.282;6.094;2023-03-24T05:28:08;4.20;;;1.52;;
11685;SDS011;5899;51.282;6.094;2023-03-24T05:30:35;4.35;;;1.67;;
11685;SDS011;5899;51.282;6.094;2023-03-24T05:33:06;3.87;;;1.70;;
11685;SDS011;5899;51.282;6.094;2023-03-24T05:35:32;2.67;;;1.40;;
11685;SDS011;5899;51.282;6.094;2023-03-24T05:37:59;5.05;;;1.60;;
11685;SDS011;5899;51.282;6.094;2023-03-24T05:40:25;4.97;;;2.03;;
11685;SDS011;5899;51.282;6.094;2023-03-24T05:42:52;4.20;;;2.13;;
11685;SDS011;5899;51.282;6.094;2023-03-24T05:45:23;5.70;;;1.95;;
11685;SDS011;5899;51.282;6.094;2023-03-24T05:47:50;5.15;;;2.10;;
11685;SDS011;5899;51.282;6.094;2023-03-24T05:50:18;4.50;;;2.03;;
11685;SDS011;5899;51.282;6.094;2023-03-24T05:52:44;3.92;;;1.90;;
11685;SDS011;5899;51.282;6.094;2023-03-24T05:55:16;5.07;;;1.40;;
11685;SDS011;5899;51.282;6.094;2023-03-24T05:57:45;3.28;;;1.52;;
11685;SDS011;5899;51.282;6.094;2023-03-24T06:00:14;2.88;;;1.50;;
11685;SDS011;5899;51.282;6.094;2023-03-24T06:02:45;2.57;;;1.17;;
11685;SDS011;5899;51.282;6.094;2023-03-24T06:05:14;3.90;;;1.52;;
11685;SDS011;5899;51.282;6.094;2023-03-24T06:07:45;3.55;;;1.50;;
11685;SDS011;5899;51.282;6.094;2023-03-24T06:10:12;4.27;;;1.57;;
11685;SDS011;5899;51.282;6.094;2023-03-24T06:12:42;3.30;;;2.28;;
11685;SDS011;5899;51.282;6.094;2023-03-24T06:15:17;5.53;;;1.67;;
11685;SDS011;5899;51.282;6.094;2023-03-24T06:17:44;3.47;;;1.52;;
11685;SDS011;5899;51.282;6.094;2023-03-24T06:20:12;4.95;;;1.55;;
11685;SDS011;5899;51.282;6.094;2023-03-24T06:22:47;4.57;;;1.80;;
11685;SDS011;5899;51.282;6.094;2023-03-24T06:25:23;4.57;;;1.80;;
11685;SDS011;5899;51.282;6.094;2023-03-24T06:27:51;3.22;;;1.40;;
11685;SDS011;5899;51.282;6.094;2023-03-24T06:30:18;3.65;;;1.63;;
11685;SDS011;5899;51.282;6.094;2023-03-24T06:32:45;3.67;;;1.97;;
11685;SDS011;5899;51.282;6.094;2023-03-24T06:35:12;6.28;;;1.80;;
11685;SDS011;5899;51.282;6.094;2023-03-24T06:37:40;7.05;;;1.90;;
11685;SDS011;5899;51.282;6.094;2023-03-24T06:40:10;7.17;;;1.93;;
11685;SDS011;5899;51.282;6.094;2023-03-24T06:42:39;4.22;;;1.60;;
11685;SDS011;5899;51.282;6.094;2023-03-24T06:45:12;6.80;;;1.95;;
11685;SDS011;5899;51.282;6.094;2023-03-24T06:47:38;8.77;;;2.20;;
11685;SDS011;5899;51.282;6.094;2023-03-24T06:50:05;3.83;;;1.58;;
11685;SDS011;5899;51.282;6.094;2023-03-24T06:52:32;4.90;;;1.85;;
11685;SDS011;5899;51.282;6.094;2023-03-24T06:54:59;4.03;;;1.70;;
11685;SDS011;5899;51.282;6.094;2023-03-24T06:57:27;3.85;;;1.58;;
11685;SDS011;5899;51.282;6.094;2023-03-24T06:59:54;6.00;;;1.70;;
11685;SDS011;5899;51.282;6.094;2023-03-24T07:02:20;4.95;;;1.83;;
11685;SDS011;5899;51.282;6.094;2023-03-24T07:04:47;3.57;;;1.67;;
11685;SDS011;5899;51.282;6.094;2023-03-24T07:07:14;3.78;;;1.80;;
11685;SDS011;5899;51.282;6.094;2023-03-24T07:09:41;4.18;;;1.60;;
11685;SDS011;5899;51.282;6.094;2023-03-24T07:12:08;6.10;;;1.70;;
11685;SDS011;5899;51.282;6.094;2023-03-24T07:14:37;3.70;;;1.52;;
11685;SDS011;5899;51.282;6.094;2023-03-24T07:17:04;3.10;;;1.40;;
11685;SDS011;5899;51.282;6.094;2023-03-24T07:19:30;3.85;;;1.50;;
11685;SDS011;5899;51.282;6.094;2023-03-24T07:21:57;3.37;;;1.33;;
11685;SDS011;5899;51.282;6.094;2023-03-24T07:24:24;3.60;;;1.65;;
11685;SDS011;5899;51.282;6.094;2023-03-24T07:26:50;2.88;;;1.75;;
11685;SDS011;5899;51.282;6.094;2023-03-24T07:29:17;5.32;;;2.00;;
11685;SDS011;5899;51.282;6.094;2023-03-24T07:31:45;9.27;;;1.90;;
11685;SDS011;5899;51.282;6.094;2023-03-24T07:34:13;6.93;;;1.73;;
11685;SDS011;5899;51.282;6.094;2023-03-24T07:36:39;2.80;;;1.90;;
11685;SDS011;5899;51.282;6.094;2023-03-24T07:39:08;6.40;;;2.03;;
11685;SDS011;5899;51.282;6.094;2023-03-24T07:41:34;8.47;;;2.30;;
11685;SDS011;5899;51.282;6.094;2023-03-24T07:44:01;3.83;;;2.05;;
11685;SDS011;5899;51.282;6.094;2023-03-24T07:46:27;4.32;;;1.90;;
11685;SDS011;5899;51.282;6.094;2023-03-24T07:48:55;5.22;;;2.35;;
11685;SDS011;5899;51.282;6.094;2023-03-24T07:51:25;5.35;;;1.98;;
11685;SDS011;5899;51.282;6.094;2023-03-24T07:53:51;7.20;;;2.10;;
11685;SDS011;5899;51.282;6.094;2023-03-24T07:56:17;7.40;;;2.05;;
11685;SDS011;5899;51.282;6.094;2023-03-24T07:58:44;7.18;;;2.55;;
11685;SDS011;5899;51.282;6.094;2023-03-24T08:01:11;6.53;;;2.33;;
11685;SDS011;5899;51.282;6.094;2023-03-24T08:03:40;6.43;;;2.67;;
11685;SDS011;5899;51.282;6.094;2023-03-24T08:06:08;6.78;;;2.15;;
11685;SDS011;5899;51.282;6.094;2023-03-24T08:08:36;5.43;;;2.35;;
11685;SDS011;5899;51.282;6.094;2023-03-24T08:11:02;5.45;;;2.28;;
11685;SDS011;5899;51.282;6.094;2023-03-24T08:13:29;8.15;;;2.25;;
11685;SDS011;5899;51.282;6.094;2023-03-24T08:15:56;6.45;;;2.30;;
11685;SDS011;5899;51.282;6.094;2023-03-24T08:18:22;6.47;;;2.10;;
11685;SDS011;5899;51.282;6.094;2023-03-24T08:20:49;5.72;;;2.03;;
11685;SDS011;5899;51.282;6.094;2023-03-24T08:23:20;5.63;;;2.07;;
11685;SDS011;5899;51.282;6.094;2023-03-24T08:25:48;4.10;;;1.90;;
11685;SDS011;5899;51.282;6.094;2023-03-24T08:28:14;5.05;;;2.60;;
11685;SDS011;5899;51.282;6.094;2023-03-24T08:30:41;6.17;;;1.80;;
11685;SDS011;5899;51.282;6.094;2023-03-24T08:33:08;6.18;;;2.20;;
11685;SDS011;5899;51.282;6.094;2023-03-24T08:35:36;7.28;;;2.13;;
11685;SDS011;5899;51.282;6.094;2023-03-24T08:38:04;5.50;;;2.00;;
11685;SDS011;5899;51.282;6.094;2023-03-24T08:40:32;5.53;;;2.00;;
11685;SDS011;5899;51.282;6.094;2023-03-24T08:43:00;6.20;;;2.03;;
11685;SDS011;5899;51.282;6.094;2023-03-24T08:45:28;3.97;;;1.90;;
11685;SDS011;5899;51.282;6.094;2023-03-24T08:47:55;5.88;;;2.45;;
11685;SDS011;5899;51.282;6.094;2023-03-24T08:50:23;7.97;;;2.28;;
11685;SDS011;5899;51.282;6.094;2023-03-24T08:52:52;6.23;;;1.97;;
11685;SDS011;5899;51.282;6.094;2023-03-24T08:55:19;5.45;;;1.80;;
11685;SDS011;5899;51.282;6.094;2023-03-24T08:57:47;6.63;;;1.95;;
11685;SDS011;5899;51.282;6.094;2023-03-24T09:00:14;4.77;;;1.97;;
11685;SDS011;5899;51.282;6.094;2023-03-24T09:02:43;6.22;;;1.83;;
11685;SDS011;5899;51.282;6.094;2023-03-24T09:05:10;4.28;;;1.58;;
11685;SDS011;5899;51.282;6.094;2023-03-24T09:07:37;6.22;;;1.90;;
11685;SDS011;5899;51.282;6.094;2023-03-24T09:10:04;4.80;;;2.05;;
11685;SDS011;5899;51.282;6.094;2023-03-24T09:12:31;3.10;;;1.80;;
11685;SDS011;5899;51.282;6.094;2023-03-24T09:14:59;2.95;;;1.80;;
11685;SDS011;5899;51.282;6.094;2023-03-24T09:17:25;5.03;;;2.10;;
11685;SDS011;5899;51.282;6.094;2023-03-24T09:19:52;4.38;;;1.70;;
11685;SDS011;5899;51.282;6.094;2023-03-24T09:22:19;6.18;;;1.80;;
11685;SDS011;5899;51.282;6.094;2023-03-24T09:24:45;4.30;;;1.53;;
11685;SDS011;5899;51.282;6.094;2023-03-24T09:27:13;5.70;;;1.90;;
11685;SDS011;5899;51.282;6.094;2023-03-24T09:29:39;6.53;;;2.08;;
11685;SDS011;5899;51.282;6.094;2023-03-24T09:32:07;2.50;;;1.52;;
11685;SDS011;5899;51.282;6.094;2023-03-24T09:34:34;5.30;;;2.00;;
11685;SDS011;5899;51.282;6.094;2023-03-24T09:37:02;5.50;;;1.80;;
11685;SDS011;5899;51.282;6.094;2023-03-24T09:39:28;4.30;;;1.52;;
11685;SDS011;5899;51.282;6.094;2023-03-24T09:41:55;4.53;;;1.77;;
11685;SDS011;5899;51.282;6.094;2023-03-24T09:44:22;7.68;;;1.88;;
11685;SDS011;5899;51.282;6.094;2023-03-24T09:46:51;4.70;;;1.80;;
11685;SDS011;5899;51.282;6.094;2023-03-24T09:49:22;4.85;;;1.80;;
11685;SDS011;5899;51.282;6.094;2023-03-24T09:51:50;5.15;;;1.92;;
11685;SDS011;5899;51.282;6.094;2023-03-24T09:54:21;4.05;;;1.58;;
11685;SDS011;5899;51.282;6.094;2023-03-24T09:56:51;5.15;;;1.60;;
11685;SDS011;5899;51.282;6.094;2023-03-24T09:59:20;4.00;;;1.40;;
11685;SDS011;5899;51.282;6.094;2023-03-24T10:01:48;4.37;;;1.80;;
11685;SDS011;5899;51.282;6.094;2023-03-24T10:04:15;3.70;;;1.70;;
11685;SDS011;5899;51.282;6.094;2023-03-24T10:06:44;6.50;;;1.80;;
11685;SDS011;5899;51.282;6.094;2023-03-24T10:09:20;3.55;;;1.77;;
11685;SDS011;5899;51.282;6.094;2023-03-24T10:11:50;6.63;;;2.00;;
11685;SDS011;5899;51.282;6.094;2023-03-24T10:14:25;5.35;;;1.98;;
11685;SDS011;5899;51.282;6.094;2023-03-24T10:16:55;3.58;;;1.77;;
11685;SDS011;5899;51.282;6.094;2023-03-24T10:19:28;3.20;;;1.67;;
11685;SDS011;5899;51.282;6.094;2023-03-24T10:22:08;4.35;;;1.83;;
11685;SDS011;5899;51.282;6.094;2023-03-24T10:24:37;4.20;;;2.27;;
11685;SDS011;5899;51.282;6.094;2023-03-24T10:27:09;5.83;;;1.90;;
11685;SDS011;5899;51.282;6.094;2023-03-24T10:29:42;4.38;;;1.67;;
11685;SDS011;5899;51.282;6.094;2023-03-24T10:32:14;6.07;;;1.85;;
11685;SDS011;5899;51.282;6.094;2023-03-24T10:34:41;5.88;;;1.70;;
11685;SDS011;5899;51.282;6.094;2023-03-24T10:37:10;3.10;;;1.63;;
11685;SDS011;5899;51.282;6.094;2023-03-24T10:39:37;4.60;;;1.80;;
11685;SDS011;5899;51.282;6.094;2023-03-24T10:42:04;4.68;;;1.98;;
11685;SDS011;5899;51.282;6.094;2023-03-24T10:44:31;8.23;;;1.80;;
11685;SDS011;5899;51.282;6.094;2023-03-24T10:47:03;4.38;;;1.80;;
11685;SDS011;5899;51.282;6.094;2023-03-24T10:49:32;4.23;;;1.90;;
11685;SDS011;5899;51.282;6.094;2023-03-24T10:51:59;4.68;;;1.80;;
11685;SDS011;5899;51.282;6.094;2023-03-24T10:54:29;4.32;;;2.05;;
11685;SDS011;5899;51.282;6.094;2023-03-24T10:57:00;5.57;;;2.08;;
11685;SDS011;5899;51.282;6.094;2023-03-24T10:59:28;4.97;;;1.67;;
11685;SDS011;5899;51.282;6.094;2023-03-24T11:01:58;4.55;;;2.00;;
11685;SDS011;5899;51.282;6.094;2023-03-24T11:04:25;3.25;;;1.50;;
11685;SDS011;5899;51.282;6.094;2023-03-24T11:07:09;4.73;;;1.90;;
11685;SDS011;5899;51.282;6.094;2023-03-24T11:09:41;4.18;;;1.65;;
11685;SDS011;5899;51.282;6.094;2023-03-24T11:12:19;2.67;;;1.58;;
11685;SDS011;5899;51.282;6.094;2023-03-24T11:14:45;8.30;;;2.15;;
11685;SDS011;5899;51.282;6.094;2023-03-24T11:17:15;4.47;;;1.80;;
11685;SDS011;5899;51.282;6.094;2023-03-24T11:19:49;5.20;;;1.95;;
11685;SDS011;5899;51.282;6.094;2023-03-24T11:22:16;6.10;;;1.95;;
11685;SDS011;5899;51.282;6.094;2023-03-24T11:24:44;4.30;;;1.70;;
11685;SDS011;5899;51.282;6.094;2023-03-24T11:27:13;3.78;;;1.75;;
11685;SDS011;5899;51.282;6.094;2023-03-24T11:29:42;4.07;;;1.73;;
11685;SDS011;5899;51.282;6.094;2023-03-24T11:32:14;3.80;;;1.70;;
11685;SDS011;5899;51.282;6.094;2023-03-24T11:34:43;3.15;;;1.70;;
11685;SDS011;5899;51.282;6.094;2023-03-24T11:37:12;3.03;;;1.73;;
11685;SDS011;5899;51.282;6.094;2023-03-24T11:39:41;6.35;;;1.70;;
11685;SDS011;5899;51.282;6.094;2023-03-24T11:42:14;4.63;;;2.10;;
11685;SDS011;5899;51.282;6.094;2023-03-24T11:44:45;4.38;;;1.65;;
11685;SDS011;5899;51.282;6.094;2023-03-24T11:47:26;3.85;;;1.70;;
11685;SDS011;5899;51.282;6.094;2023-03-24T11:49:56;3.95;;;1.70;;
11685;SDS011;5899;51.282;6.094;2023-03-24T11:52:27;3.00;;;1.63;;
11685;SDS011;5899;51.282;6.094;2023-03-24T11:54:55;5.03;;;1.85;;
11685;SDS011;5899;51.282;6.094;2023-03-24T11:57:26;4.13;;;1.50;;
11685;SDS011;5899;51.282;6.094;2023-03-24T12:00:07;4.10;;;1.80;;
11685;SDS011;5899;51.282;6.094;2023-03-24T12:02:43;8.27;;;1.80;;
11685;SDS011;5899;51.282;6.094;2023-03-24T12:05:27;3.35;;;1.85;;
11685;SDS011;5899;51.282;6.094;2023-03-24T12:07:59;4.47;;;1.80;;
11685;SDS011;5899;51.282;6.094;2023-03-24T12:10:32;4.95;;;2.00;;
11685;SDS011;5899;51.282;6.094;2023-03-24T12:13:06;4.68;;;2.00;;
11685;SDS011;5899;51.282;6.094;2023-03-24T12:15:38;2.83;;;1.60;;
11685;SDS011;5899;51.282;6.094;2023-03-24T12:18:09;4.93;;;2.10;;
11685;SDS011;5899;51.282;6.094;2023-03-24T12:20:43;6.00;;;1.80;;
11685;SDS011;5899;51.282;6.094;2023-03-24T12:23:17;7.53;;;2.03;;
11685;SDS011;5899;51.282;6.094;2023-03-24T12:25:47;3.90;;;2.00;;
11685;SDS011;5899;51.282;6.094;2023-03-24T12:31:05;3.65;;;2.05;;
11685;SDS011;5899;51.282;6.094;2023-03-24T12:33:41;3.85;;;1.90;;
11685;SDS011;5899;51.282;6.094;2023-03-24T12:36:17;5.57;;;2.10;;
11685;SDS011;5899;51.282;6.094;2023-03-24T12:38:50;4.43;;;1.77;;
11685;SDS011;5899;51.282;6.094;2023-03-24T12:41:23;4.60;;;1.70;;
11685;SDS011;5899;51.282;6.094;2023-03-24T12:43:56;6.47;;;2.55;;
11685;SDS011;5899;51.282;6.094;2023-03-24T12:46:33;6.47;;;2.25;;
11685;SDS011;5899;51.282;6.094;2023-03-24T12:49:17;6.88;;;2.47;;
11685;SDS011;5899;51.282;6.094;2023-03-24T12:51:48;5.95;;;2.20;;
11685;SDS011;5899;51.282;6.094;2023-03-24T12:54:23;7.32;;;2.63;;
11685;SDS011;5899;51.282;6.094;2023-03-24T12:56:57;5.43;;;1.90;;
11685;SDS011;5899;51.282;6.094;2023-03-24T12:59:27;5.28;;;1.77;;
11685;SDS011;5899;51.282;6.094;2023-03-24T13:01:57;3.30;;;1.83;;
11685;SDS011;5899;51.282;6.094;2023-03-24T13:04:25;4.93;;;1.83;;
11685;SDS011;5899;51.282;6.094;2023-03-24T13:06:58;4.68;;;1.65;;
11685;SDS011;5899;51.282;6.094;2023-03-24T13:09:33;4.85;;;1.92;;
11685;SDS011;5899;51.282;6.094;2023-03-24T13:12:05;3.15;;;1.40;;
11685;SDS011;5899;51.282;6.094;2023-03-24T13:17:40;4.03;;;1.75;;
11685;SDS011;5899;51.282;6.094;2023-03-24T13:20:11;2.35;;;1.30;;
11685;SDS011;5899;51.282;6.094;2023-03-24T13:22:38;3.60;;;1.30;;
11685;SDS011;5899;51.282;6.094;2023-03-24T13:25:07;3.33;;;1.43;;
11685;SDS011;5899;51.282;6.094;2023-03-24T13:27:35;1.58;;;1.40;;
11685;SDS011;5899;51.282;6.094;2023-03-24T13:30:13;2.75;;;1.30;;
11685;SDS011;5899;51.282;6.094;2023-03-24T13:32:43;2.72;;;1.40;;
11685;SDS011;5899;51.282;6.094;2023-03-24T13:35:12;3.40;;;1.50;;
11685;SDS011;5899;51.282;6.094;2023-03-24T13:37:41;3.97;;;1.65;;
11685;SDS011;5899;51.282;6.094;2023-03-24T13:40:16;2.28;;;1.40;;
11685;SDS011;5899;51.282;6.094;2023-03-24T13:42:44;2.65;;;1.45;;
11685;SDS011;5899;51.282;6.094;2023-03-24T13:45:20;3.60;;;1.45;;
11685;SDS011;5899;51.282;6.094;2023-03-24T13:47:49;1.27;;;1.17;;
11685;SDS011;5899;51.282;6.094;2023-03-24T13:50:18;2.90;;;1.30;;
11685;SDS011;5899;51.282;6.094;2023-03-24T13:52:45;2.88;;;1.55;;
11685;SDS011;5899;51.282;6.094;2023-03-24T13:55:14;2.42;;;1.30;;
11685;SDS011;5899;51.282;6.094;2023-03-24T13:57:54;1.30;;;1.20;;
11685;SDS011;5899;51.282;6.094;2023-03-24T14:00:24;2.15;;;1.50;;
11685;SDS011;5899;51.282;6.094;2023-03-24T14:02:56;4.05;;;1.92;;
11685;SDS011;5899;51.282;6.094;2023-03-24T14:05:53;3.25;;;1.73;;
11685;SDS011;5899;51.282;6.094;2023-03-24T14:08:32;2.78;;;1.70;;
11685;SDS011;5899;51.282;6.094;2023-03-24T14:10:59;6.70;;;2.50;;
11685;SDS011;5899;51.282;6.094;2023-03-24T14:13:33;3.10;;;1.70;;
11685;SDS011;5899;51.282;6.094;2023-03-24T14:16:24;3.40;;;1.60;;
11685;SDS011;5899;51.282;6.094;2023-03-24T14:18:53;2.67;;;1.63;;
11685;SDS011;5899;51.282;6.094;2023-03-24T14:21:32;3.25;;;2.00;;
11685;SDS011;5899;51.282;6.094;2023-03-24T14:24:00;4.30;;;1.90;;
11685;SDS011;5899;51.282;6.094;2023-03-24T14:26:28;3.53;;;1.70;;
11685;SDS011;5899;51.282;6.094;2023-03-24T14:28:58;3.15;;;2.50;;
11685;SDS011;5899;51.282;6.094;2023-03-24T14:31:26;3.45;;;1.80;;
11685;SDS011;5899;51.282;6.094;2023-03-24T14:34:04;2.95;;;1.40;;
11685;SDS011;5899;51.282;6.094;2023-03-24T14:36:34;2.63;;;1.40;;
11685;SDS011;5899;51.282;6.094;2023-03-24T14:39:08;3.17;;;1.50;;
11685;SDS011;5899;51.282;6.094;2023-03-24T14:41:37;2.42;;;1.60;;
11685;SDS011;5899;51.282;6.094;2023-03-24T14:44:05;2.30;;;1.70;;
11685;SDS011;5899;51.282;6.094;2023-03-24T14:46:35;3.72;;;1.73;;
11685;SDS011;5899;51.282;6.094;2023-03-24T14:49:10;2.83;;;1.80;;
11685;SDS011;5899;51.282;6.094;2023-03-24T14:51:38;1.58;;;1.45;;
11685;SDS011;5899;51.282;6.094;2023-03-24T14:54:12;3.15;;;1.70;;
11685;SDS011;5899;51.282;6.094;2023-03-24T14:56:39;3.08;;;1.70;;
11685;SDS011;5899;51.282;6.094;2023-03-24T14:59:08;4.13;;;1.77;;
11685;SDS011;5899;51.282;6.094;2023-03-24T15:01:36;3.03;;;1.70;;
11685;SDS011;5899;51.282;6.094;2023-03-24T15:04:06;3.60;;;1.60;;
11685;SDS011;5899;51.282;6.094;2023-03-24T15:06:42;4.00;;;1.75;;
11685;SDS011;5899;51.282;6.094;2023-03-24T15:09:40;5.13;;;2.45;;
11685;SDS011;5899;51.282;6.094;2023-03-24T15:12:21;4.40;;;2.45;;
11685;SDS011;5899;51.282;6.094;2023-03-24T15:14:48;4.55;;;1.70;;
11685;SDS011;5899;51.282;6.094;2023-03-24T15:17:16;3.33;;;1.30;;
11685;SDS011;5899;51.282;6.094;2023-03-24T15:19:43;2.58;;;1.00;;
11685;SDS011;5899;51.282;6.094;2023-03-24T15:22:19;1.08;;;0.93;;
11685;SDS011;5899;51.282;6.094;2023-03-24T15:24:46;1.23;;;1.10;;
11685;SDS011;5899;51.282;6.094;2023-03-24T15:27:16;1.02;;;1.00;;
11685;SDS011;5899;51.282;6.094;2023-03-24T15:29:44;1.88;;;1.05;;
11685;SDS011;5899;51.282;6.094;2023-03-24T15:32:14;0.70;;;0.70;;